createdAt,value
2018-05-15T00:00:03.936Z,3.60
2018-05-15T00:02:32.508Z,4.00
2018-05-15T00:05:01.484Z,5.10
2018-05-15T00:07:36.316Z,5.23
2018-05-15T00:10:04.907Z,4.33
2018-05-15T00:12:34.135Z,4.40
2018-05-15T00:15:02.330Z,4.80
2018-05-15T00:17:30.529Z,3.80
2018-05-15T00:19:58.752Z,4.30
2018-05-15T00:22:26.954Z,4.57
2018-05-15T00:24:55.216Z,3.90
2018-05-15T00:27:23.425Z,4.03
2018-05-15T00:29:52.125Z,4.30
2018-05-15T00:32:20.621Z,4.50
2018-05-15T00:34:48.829Z,6.47
2018-05-15T00:37:17.034Z,3.73
2018-05-15T00:39:46.094Z,5.27
2018-05-15T00:42:15.062Z,5.07
2018-05-15T00:44:43.345Z,5.17
2018-05-15T00:47:12.352Z,4.70
2018-05-15T00:49:41.366Z,4.70
2018-05-15T00:52:09.532Z,11.93
2018-05-15T00:54:37.754Z,4.63
2018-05-15T00:57:06.272Z,5.30
2018-05-15T00:59:35.242Z,8.77
2018-05-15T01:02:04.468Z,4.97
2018-05-15T01:04:33.440Z,4.80
2018-05-15T01:07:01.640Z,4.47
2018-05-15T01:09:30.921Z,4.90
2018-05-15T01:11:59.598Z,5.20
2018-05-15T01:14:27.988Z,4.50
2018-05-15T01:16:56.187Z,4.93
2018-05-15T01:19:25.183Z,4.70
2018-05-15T01:21:54.145Z,5.30
2018-05-15T01:24:22.728Z,8.30
2018-05-15T01:26:51.417Z,6.30
2018-05-15T01:29:19.628Z,4.30
2018-05-15T01:31:48.181Z,5.60
2018-05-15T01:34:16.775Z,5.03
2018-05-15T01:36:44.978Z,4.70
2018-05-15T01:39:13.436Z,5.00
2018-05-15T01:41:42.415Z,4.60
2018-05-15T01:44:10.724Z,4.93
2018-05-15T01:46:38.930Z,9.17
2018-05-15T01:49:08.364Z,6.60
2018-05-15T01:51:36.560Z,5.27
2018-05-15T01:54:04.816Z,8.20
2018-05-15T01:56:33.028Z,6.37
2018-05-15T01:59:01.993Z,5.13
2018-05-15T02:01:30.324Z,10.37
2018-05-15T02:03:58.906Z,7.40
2018-05-15T02:06:27.640Z,5.50
2018-05-15T02:08:56.020Z,6.90
2018-05-15T02:11:24.644Z,7.57
2018-05-15T02:13:53.084Z,7.20
2018-05-15T02:16:21.287Z,9.50
2018-05-15T02:18:49.493Z,7.80
2018-05-15T02:21:17.712Z,5.17
2018-05-15T02:23:46.408Z,6.43
2018-05-15T02:26:15.020Z,5.23
2018-05-15T02:28:43.225Z,5.57
2018-05-15T02:31:21.155Z,5.50
2018-05-15T02:33:49.361Z,5.83
2018-05-15T02:36:17.553Z,7.53
2018-05-15T02:38:45.991Z,6.93
2018-05-15T02:41:14.192Z,8.77
2018-05-15T02:43:42.872Z,7.00
2018-05-15T02:46:11.847Z,6.20
2018-05-15T02:48:40.049Z,6.23
2018-05-15T02:51:09.037Z,5.77
2018-05-15T02:53:37.236Z,5.80
2018-05-15T02:56:05.437Z,5.60
2018-05-15T02:58:33.984Z,5.40
2018-05-15T03:01:02.950Z,5.17
2018-05-15T03:03:31.406Z,6.10
2018-05-15T03:05:59.869Z,5.30
2018-05-15T03:08:29.116Z,6.03
2018-05-15T03:11:01.732Z,5.17
2018-05-15T03:13:30.057Z,5.33
2018-05-15T03:15:58.273Z,6.50
2018-05-15T03:18:27.681Z,6.57
2018-05-15T03:20:56.648Z,6.47
2018-05-15T03:23:25.443Z,5.73
2018-05-15T03:25:54.557Z,5.60
2018-05-15T03:28:23.527Z,6.97
2018-05-15T03:30:51.723Z,5.43
2018-05-15T03:33:20.313Z,6.37
2018-05-15T03:35:49.265Z,7.90
2018-05-15T03:38:17.674Z,5.97
2018-05-15T03:40:45.881Z,5.97
2018-05-15T03:43:14.624Z,8.37
2018-05-15T03:45:42.830Z,10.60
2018-05-15T03:48:11.801Z,5.37
2018-05-15T03:50:40.012Z,7.13
2018-05-15T03:53:08.317Z,6.60
2018-05-15T03:55:36.516Z,7.20
2018-05-15T03:58:05.304Z,6.00
2018-05-15T04:00:51.502Z,8.60
2018-05-15T04:03:31.843Z,7.10
2018-05-15T04:06:12.444Z,6.07
2018-05-15T04:08:41.472Z,7.40
2018-05-15T04:11:10.781Z,10.83
2018-05-15T04:13:39.062Z,10.23
2018-05-15T04:16:07.536Z,6.67
2018-05-15T04:18:36.180Z,6.50
2018-05-15T04:21:04.463Z,6.53
2018-05-15T04:23:33.245Z,6.87
2018-05-15T04:26:01.834Z,5.83
2018-05-15T04:28:30.069Z,6.00
2018-05-15T04:30:58.244Z,6.50
2018-05-15T04:33:26.868Z,7.30
2018-05-15T04:35:55.068Z,6.77
2018-05-15T04:38:23.633Z,6.50
2018-05-15T04:40:52.795Z,7.00
2018-05-15T04:43:21.306Z,7.20
2018-05-15T04:45:49.872Z,7.70
2018-05-15T04:48:18.086Z,7.03
2018-05-15T04:50:47.072Z,6.53
2018-05-15T04:53:16.713Z,6.57
2018-05-15T04:55:53.356Z,7.07
2018-05-15T04:58:22.321Z,6.60
2018-05-15T05:00:50.912Z,6.73
2018-05-15T05:03:19.173Z,7.97
2018-05-15T05:05:47.376Z,6.90
2018-05-15T05:08:15.764Z,7.53
2018-05-15T05:10:45.581Z,10.53
2018-05-15T05:13:15.161Z,7.33
2018-05-15T05:15:43.368Z,7.90
2018-05-15T05:18:12.329Z,6.73
2018-05-15T05:20:40.556Z,17.87
2018-05-15T05:23:15.647Z,9.43
2018-05-15T05:25:51.932Z,6.50
2018-05-15T05:28:20.133Z,7.50
2018-05-15T05:30:48.336Z,6.90
2018-05-15T05:33:16.999Z,6.70
2018-05-15T05:35:45.436Z,6.27
2018-05-15T05:38:18.564Z,11.13
2018-05-15T05:40:46.759Z,6.57
2018-05-15T05:43:15.688Z,7.10
2018-05-15T05:45:44.380Z,7.07
2018-05-15T05:48:12.584Z,6.60
2018-05-15T05:50:41.564Z,8.93
2018-05-15T05:53:09.796Z,7.53
2018-05-15T05:55:37.993Z,7.27
2018-05-15T05:58:06.948Z,6.70
2018-05-15T06:00:35.145Z,7.70
2018-05-15T06:03:03.343Z,7.37
2018-05-15T06:05:31.584Z,7.63
2018-05-15T06:08:00.419Z,7.03
2018-05-15T06:10:28.620Z,6.57
2018-05-15T06:12:57.671Z,8.80
2018-05-15T06:15:25.860Z,5.87
2018-05-15T06:17:54.059Z,7.50
2018-05-15T06:20:22.279Z,6.00
2018-05-15T06:22:50.482Z,6.70
2018-05-15T06:25:19.182Z,6.63
2018-05-15T06:27:48.416Z,6.63
2018-05-15T06:30:16.947Z,6.83
2018-05-15T06:32:45.449Z,7.33
2018-05-15T06:35:13.647Z,6.10
2018-05-15T06:37:42.189Z,6.30
2018-05-15T06:40:10.772Z,6.10
2018-05-15T06:42:38.992Z,6.20
2018-05-15T06:45:08.684Z,5.37
2018-05-15T06:47:38.188Z,5.90
2018-05-15T06:50:06.396Z,5.30
2018-05-15T06:52:34.592Z,5.57
2018-05-15T06:55:03.436Z,7.23
2018-05-15T06:57:32.728Z,5.77
2018-05-15T07:00:00.945Z,6.30
2018-05-15T07:02:29.144Z,5.30
2018-05-15T07:04:57.643Z,5.70
2018-05-15T07:07:26.236Z,6.40
2018-05-15T07:09:54.440Z,4.73
2018-05-15T07:15:07.647Z,4.90
2018-05-15T07:17:35.844Z,5.30
2018-05-15T07:20:04.820Z,6.10
2018-05-15T07:22:33.037Z,5.33
2018-05-15T07:25:01.245Z,5.00
2018-05-15T07:27:29.524Z,4.90
2018-05-15T07:29:58.852Z,4.83
2018-05-15T07:32:27.494Z,4.67
2018-05-15T07:34:55.772Z,4.17
2018-05-15T07:37:24.298Z,3.83
2018-05-15T07:39:52.502Z,4.33
2018-05-15T07:42:21.892Z,5.43
2018-05-15T07:44:50.094Z,4.97
2018-05-15T07:47:18.300Z,7.00
2018-05-15T07:49:46.521Z,3.90
2018-05-15T07:52:15.090Z,4.20
2018-05-15T07:54:43.577Z,3.97
2018-05-15T07:57:11.780Z,3.93
2018-05-15T07:59:39.998Z,5.03
2018-05-15T08:02:08.698Z,4.00
2018-05-15T08:04:37.094Z,3.80
2018-05-15T08:07:06.021Z,3.77
2018-05-15T08:09:34.229Z,5.63
2018-05-15T08:12:02.950Z,3.47
2018-05-15T08:14:31.223Z,3.67
2018-05-15T08:16:59.875Z,3.73
2018-05-15T08:19:28.121Z,4.23
2018-05-15T08:21:56.584Z,5.60
2018-05-15T08:24:25.393Z,4.43
2018-05-15T08:26:54.596Z,4.77
2018-05-15T08:29:23.136Z,8.70
2018-05-15T08:31:51.948Z,3.50
2018-05-15T08:34:21.292Z,3.97
2018-05-15T08:36:49.507Z,3.37
2018-05-15T08:39:18.603Z,3.57
2018-05-15T08:41:46.816Z,3.70
2018-05-15T08:44:16.001Z,5.20
2018-05-15T08:46:44.988Z,3.40
2018-05-15T08:49:13.661Z,3.53
2018-05-15T08:51:41.856Z,3.47
2018-05-15T08:54:17.569Z,3.93
2018-05-15T08:56:45.778Z,3.60
2018-05-15T08:59:13.981Z,2.87
2018-05-15T09:01:42.211Z,5.00
2018-05-15T09:04:10.420Z,3.40
2018-05-15T09:06:39.565Z,3.50
2018-05-15T09:09:07.920Z,3.13
2018-05-15T09:11:36.462Z,2.50
2018-05-15T09:14:04.924Z,3.30
2018-05-15T09:16:33.124Z,4.23
2018-05-15T09:19:02.092Z,3.00
2018-05-15T09:21:30.608Z,3.10
2018-05-15T09:23:59.572Z,2.97
2018-05-15T09:26:27.936Z,6.30
2018-05-15T09:28:56.552Z,4.23
2018-05-15T09:31:24.927Z,2.53
2018-05-15T09:33:53.517Z,4.53
2018-05-15T09:36:22.452Z,5.67
2018-05-15T09:38:50.682Z,2.63
2018-05-15T09:41:18.875Z,4.17
2018-05-15T09:43:55.595Z,3.17
2018-05-15T09:46:23.776Z,2.80
2018-05-15T09:48:52.507Z,6.00
2018-05-15T09:51:21.473Z,2.70
2018-05-15T09:53:50.073Z,2.70
2018-05-15T09:56:19.141Z,3.07
2018-05-15T09:58:47.331Z,3.00
2018-05-15T10:01:15.545Z,2.47
2018-05-15T10:03:44.808Z,3.17
2018-05-15T10:06:13.008Z,5.83
2018-05-15T10:08:42.211Z,2.87
2018-05-15T10:11:11.811Z,2.70
2018-05-15T10:13:40.384Z,3.50
2018-05-15T10:16:08.588Z,3.00
2018-05-15T10:18:36.783Z,2.87
2018-05-15T10:21:05.008Z,3.30
2018-05-15T10:23:33.479Z,3.53
2018-05-15T10:26:02.183Z,2.77
2018-05-15T10:28:30.391Z,2.90
2018-05-15T10:30:59.440Z,3.37
2018-05-15T10:33:31.384Z,5.70
2018-05-15T10:35:59.586Z,3.10
2018-05-15T10:38:27.860Z,3.10
2018-05-15T10:40:56.073Z,3.20
2018-05-15T10:43:24.272Z,3.00
2018-05-15T10:45:52.857Z,4.50
2018-05-15T10:48:21.137Z,5.67
2018-05-15T10:50:49.402Z,6.03
2018-05-15T10:53:17.564Z,2.93
2018-05-15T10:55:46.220Z,2.93
2018-05-15T10:58:14.434Z,4.80
2018-05-15T11:00:43.964Z,3.37
2018-05-15T11:03:12.196Z,3.87
2018-05-15T11:05:40.401Z,3.47
2018-05-15T11:08:08.953Z,3.23
2018-05-15T11:10:45.947Z,3.50
2018-05-15T11:13:15.312Z,5.30
2018-05-15T11:15:43.510Z,3.50
2018-05-15T11:18:24.381Z,3.73
2018-05-15T11:21:05.282Z,5.20
2018-05-15T11:23:45.279Z,3.53
2018-05-15T11:26:14.392Z,4.10
2018-05-15T11:28:46.983Z,4.27
2018-05-15T11:31:18.449Z,4.27
2018-05-15T11:33:47.843Z,6.33
2018-05-15T11:36:16.721Z,3.60
2018-05-15T11:38:45.226Z,4.17
2018-05-15T11:41:14.188Z,4.13
2018-05-15T11:43:42.722Z,5.20
2018-05-15T11:46:10.919Z,4.57
2018-05-15T11:48:39.587Z,4.07
2018-05-15T11:51:08.101Z,4.13
2018-05-15T11:53:35.615Z,3.87
2018-05-15T11:56:04.387Z,7.30
2018-05-15T11:58:33.655Z,3.63
2018-05-15T12:01:01.855Z,7.63
2018-05-15T12:03:30.061Z,3.37
2018-05-15T12:05:58.283Z,3.13
2018-05-15T12:08:27.844Z,4.10
2018-05-15T12:11:04.507Z,3.60
2018-05-15T12:13:32.776Z,3.80
2018-05-15T12:16:01.756Z,3.50
2018-05-15T12:18:31.134Z,3.27
2018-05-15T12:20:59.505Z,4.00
2018-05-15T12:23:27.661Z,3.50
2018-05-15T12:25:56.301Z,4.00
2018-05-15T12:28:24.504Z,3.53
2018-05-15T12:30:53.048Z,4.87
2018-05-15T12:33:21.533Z,3.87
2018-05-15T12:35:49.769Z,4.90
2018-05-15T12:38:18.076Z,4.07
2018-05-15T12:40:46.340Z,4.43
2018-05-15T12:43:15.300Z,6.17
2018-05-15T12:45:44.178Z,5.83
2018-05-15T12:48:12.745Z,5.43
2018-05-15T12:50:40.869Z,8.07
2018-05-15T12:53:09.087Z,7.90
2018-05-15T12:55:37.676Z,4.83
2018-05-15T12:58:05.872Z,5.70
2018-05-15T13:00:42.050Z,15.43
2018-05-15T13:03:10.561Z,6.43
2018-05-15T13:05:38.796Z,5.13
2018-05-15T13:08:07.648Z,5.07
2018-05-15T13:10:35.848Z,5.27
2018-05-15T13:13:04.780Z,4.40
2018-05-15T13:15:33.748Z,5.30
2018-05-15T13:18:01.948Z,5.07
2018-05-15T13:20:30.160Z,5.00
2018-05-15T13:22:58.364Z,5.33
2018-05-15T13:25:27.324Z,4.20
2018-05-15T13:27:55.803Z,5.43
2018-05-15T13:30:24.496Z,4.50
2018-05-15T13:32:52.899Z,5.33
2018-05-15T13:35:21.955Z,6.20
2018-05-15T13:37:51.224Z,5.40
2018-05-15T13:40:19.430Z,5.07
2018-05-15T13:42:47.776Z,4.33
2018-05-15T13:45:15.972Z,6.27
2018-05-15T13:47:44.176Z,4.90
2018-05-15T13:50:12.388Z,5.37
2018-05-15T13:52:41.362Z,4.77
2018-05-15T13:55:10.074Z,8.13
2018-05-15T13:57:38.264Z,7.37
2018-05-15T14:00:06.460Z,4.77
2018-05-15T14:02:34.995Z,5.50
2018-05-15T14:05:03.986Z,6.50
2018-05-15T14:07:32.756Z,4.10
2018-05-15T14:10:01.344Z,4.83
2018-05-15T14:12:30.574Z,4.97
2018-05-15T14:14:59.757Z,4.60
2018-05-15T14:17:27.957Z,5.43
2018-05-15T14:19:56.248Z,3.83
2018-05-15T14:22:24.449Z,5.17
2018-05-15T14:24:52.652Z,4.90
2018-05-15T14:27:20.944Z,3.77
2018-05-15T14:29:50.073Z,6.13
2018-05-15T14:32:18.329Z,3.90
2018-05-15T14:34:46.896Z,6.30
2018-05-15T14:37:15.945Z,7.33
2018-05-15T14:39:44.142Z,4.57
2018-05-15T14:42:24.976Z,4.27
2018-05-15T14:44:53.184Z,2.77
2018-05-15T14:47:21.376Z,4.20
2018-05-15T14:49:49.796Z,4.43
2018-05-15T14:52:18.005Z,3.60
2018-05-15T14:54:47.039Z,4.93
2018-05-15T14:57:16.024Z,6.40
2018-05-15T14:59:44.223Z,2.77
2018-05-15T15:02:13.216Z,5.60
2018-05-15T15:04:43.475Z,4.37
2018-05-15T15:07:12.393Z,3.93
2018-05-15T15:09:40.588Z,4.50
2018-05-15T15:12:09.772Z,4.70
2018-05-15T15:14:38.284Z,2.90
2018-05-15T15:17:07.350Z,2.93
2018-05-15T15:19:35.903Z,7.23
2018-05-15T15:22:11.376Z,2.90
2018-05-15T15:24:39.588Z,2.80
2018-05-15T15:27:07.889Z,4.00
2018-05-15T15:29:36.250Z,3.57
2018-05-15T15:32:04.669Z,2.93
2018-05-15T15:34:33.493Z,3.60
2018-05-15T15:37:01.740Z,3.70
2018-05-15T15:39:30.451Z,3.47
2018-05-15T15:41:58.952Z,4.23
2018-05-15T15:44:27.925Z,2.97
2018-05-15T15:46:56.149Z,4.10
2018-05-15T15:49:24.384Z,3.33
2018-05-15T15:51:52.599Z,5.53
2018-05-15T15:54:21.013Z,4.17
2018-05-15T15:56:51.216Z,3.70
2018-05-15T15:59:19.417Z,7.70
2018-05-15T16:01:47.624Z,3.67
2018-05-15T16:04:16.118Z,5.60
2018-05-15T16:06:53.649Z,3.13
2018-05-15T16:09:21.860Z,4.00
2018-05-15T16:11:50.768Z,3.40
2018-05-15T16:14:19.909Z,2.13
2018-05-15T16:16:48.122Z,2.60
2018-05-15T16:19:16.350Z,2.53
2018-05-15T16:21:44.580Z,2.43
2018-05-15T16:24:12.804Z,7.80
2018-05-15T16:26:41.443Z,1.90
2018-05-15T16:29:10.020Z,1.63
2018-05-15T16:31:38.923Z,1.83
2018-05-15T16:34:07.095Z,2.10
2018-05-15T16:36:35.288Z,4.63
2018-05-15T16:39:03.844Z,1.77
2018-05-15T16:41:32.093Z,2.43
2018-05-15T16:44:00.292Z,2.20
2018-05-15T16:46:28.497Z,2.17
2018-05-15T16:48:57.400Z,3.00
2018-05-15T16:51:26.368Z,6.43
2018-05-15T16:53:58.640Z,4.10
2018-05-15T16:56:27.123Z,3.50
2018-05-15T16:58:55.335Z,4.17
2018-05-15T17:01:23.543Z,4.33
2018-05-15T17:03:51.953Z,3.97
2018-05-15T17:06:20.650Z,4.30
2018-05-15T17:08:49.233Z,4.90
2018-05-15T17:11:17.916Z,5.03
2018-05-15T17:13:46.481Z,3.90
2018-05-15T17:16:16.043Z,4.50
2018-05-15T17:18:44.244Z,5.23
2018-05-15T17:21:12.766Z,4.13
2018-05-15T17:23:41.560Z,4.77
2018-05-15T17:26:10.892Z,4.73
2018-05-15T17:28:39.174Z,4.17
2018-05-15T17:31:07.607Z,4.23
2018-05-15T17:33:36.061Z,5.07
2018-05-15T17:36:04.256Z,4.57
2018-05-15T17:38:32.755Z,4.33
2018-05-15T17:41:01.057Z,5.40
2018-05-15T17:43:30.038Z,4.20
2018-05-15T17:45:58.251Z,5.73
2018-05-15T17:48:26.514Z,4.87
2018-05-15T17:50:54.656Z,4.60
2018-05-15T17:53:23.643Z,4.63
2018-05-15T17:55:52.349Z,7.03
2018-05-15T17:58:21.135Z,4.10
2018-05-15T18:00:50.096Z,4.57
2018-05-15T18:03:18.509Z,5.70
2018-05-15T18:05:51.175Z,4.20
2018-05-15T18:08:19.738Z,4.97
2018-05-15T18:10:48.276Z,5.23
2018-05-15T18:13:22.973Z,5.10
2018-05-15T18:15:52.365Z,5.17
2018-05-15T18:18:20.584Z,5.53
2018-05-15T18:20:48.789Z,5.43
2018-05-15T18:23:17.189Z,5.63
2018-05-15T18:25:53.659Z,4.97
2018-05-15T18:28:21.860Z,4.60
2018-05-15T18:30:50.916Z,5.93
2018-05-15T18:33:19.297Z,4.00
2018-05-15T18:35:47.496Z,3.43
2018-05-15T18:38:16.224Z,3.30
2018-05-15T18:40:45.272Z,3.53
2018-05-15T18:43:13.489Z,3.37
2018-05-15T18:45:42.060Z,5.40
2018-05-15T18:48:11.048Z,6.33
2018-05-15T18:50:39.734Z,5.37
2018-05-15T18:53:09.020Z,4.80
2018-05-15T18:55:37.538Z,5.33
2018-05-15T18:58:05.886Z,5.37
2018-05-15T19:00:34.008Z,5.40
2018-05-15T19:03:02.652Z,5.33
2018-05-15T19:05:30.856Z,6.23
2018-05-15T19:07:59.131Z,5.40
2018-05-15T19:10:27.324Z,6.57
2018-05-15T19:12:55.972Z,5.70
2018-05-15T19:15:25.376Z,7.40
2018-05-15T19:17:53.592Z,6.03
2018-05-15T19:20:21.787Z,6.90
2018-05-15T19:22:56.465Z,5.47
2018-05-15T19:25:25.456Z,5.43
2018-05-15T19:27:53.762Z,5.93
2018-05-15T19:30:22.182Z,5.60
2018-05-15T19:32:56.872Z,5.23
2018-05-15T19:35:29.931Z,7.80
2018-05-15T19:37:58.520Z,5.47
2018-05-15T19:40:30.304Z,5.87
2018-05-15T19:42:59.501Z,5.17
2018-05-15T19:45:28.458Z,6.97
2018-05-15T19:47:56.666Z,5.87
2018-05-15T19:50:24.948Z,6.57
2018-05-15T19:52:53.141Z,8.67
2018-05-15T19:55:21.416Z,7.37
2018-05-15T19:57:50.092Z,5.90
2018-05-15T20:00:18.289Z,5.90
2018-05-15T20:02:46.498Z,6.30
2018-05-15T20:05:15.199Z,8.00
2018-05-15T20:07:44.549Z,7.30
2018-05-15T20:10:13.924Z,7.37
2018-05-15T20:12:42.656Z,6.30
2018-05-15T20:15:11.464Z,6.60
2018-05-15T20:17:40.381Z,7.70
2018-05-15T20:20:09.348Z,7.53
2018-05-15T20:22:37.866Z,9.10
2018-05-15T20:25:06.062Z,8.53
2018-05-15T20:27:34.308Z,11.47
2018-05-15T20:30:03.631Z,7.67
2018-05-15T20:32:31.900Z,7.30
2018-05-15T20:35:00.165Z,7.43
2018-05-15T20:37:28.609Z,7.10
2018-05-15T20:39:57.072Z,6.37
2018-05-15T20:42:25.278Z,6.63
2018-05-15T20:44:53.499Z,10.33
2018-05-15T20:47:21.702Z,8.00
2018-05-15T20:49:49.900Z,9.50
2018-05-15T20:52:18.137Z,8.50
2018-05-15T20:54:56.932Z,7.90
2018-05-15T20:57:25.896Z,7.40
2018-05-15T20:59:54.100Z,6.70
2018-05-15T21:02:23.096Z,6.47
2018-05-15T21:04:51.296Z,6.20
2018-05-15T21:07:20.588Z,7.00
2018-05-15T21:09:48.784Z,6.90
2018-05-15T21:12:17.064Z,8.77
2018-05-15T21:14:45.980Z,6.93
2018-05-15T21:17:14.190Z,9.43
2018-05-15T21:19:42.759Z,8.30
2018-05-15T21:22:10.952Z,6.67
2018-05-15T21:24:39.700Z,7.00
2018-05-15T21:27:09.001Z,8.30
2018-05-15T21:29:37.761Z,10.70
2018-05-15T21:32:06.027Z,6.37
2018-05-15T21:34:34.216Z,8.50
2018-05-15T21:37:02.617Z,8.83
2018-05-15T21:39:31.452Z,7.00
2018-05-15T21:42:00.433Z,6.50
2018-05-15T21:44:28.636Z,7.07
2018-05-15T21:46:57.087Z,7.90
2018-05-15T21:49:26.055Z,7.33
2018-05-15T21:51:54.252Z,6.40
2018-05-15T21:54:23.233Z,8.60
2018-05-15T21:56:52.034Z,7.63
2018-05-15T21:59:20.232Z,6.80
2018-05-15T22:01:48.452Z,7.50
2018-05-15T22:04:16.870Z,7.77
2018-05-15T22:06:53.285Z,7.33
2018-05-15T22:09:21.536Z,7.33
2018-05-15T22:12:03.544Z,7.87
2018-05-15T22:14:44.464Z,7.60
2018-05-15T22:17:30.965Z,6.93
2018-05-15T22:20:11.976Z,7.23
2018-05-15T22:22:39.711Z,7.03
2018-05-15T22:25:07.904Z,6.37
2018-05-15T22:27:36.189Z,8.13
2018-05-15T22:30:04.561Z,7.67
2018-05-15T22:32:33.036Z,6.60
2018-05-15T22:35:01.245Z,6.60
2018-05-15T22:37:29.686Z,8.00
2018-05-15T22:39:57.884Z,7.17
2018-05-15T22:42:26.081Z,6.67
2018-05-15T22:44:54.297Z,7.47
2018-05-15T22:47:22.500Z,9.00
2018-05-15T22:49:50.703Z,7.70
2018-05-15T22:52:18.936Z,9.70
2018-05-15T22:54:58.671Z,8.10
2018-05-15T22:57:26.868Z,7.57
2018-05-15T22:59:55.552Z,7.70
2018-05-15T23:02:23.752Z,7.40
2018-05-15T23:04:52.726Z,8.50
2018-05-15T23:07:21.096Z,8.90
2018-05-15T23:09:50.219Z,7.00
2018-05-15T23:12:19.937Z,8.20
2018-05-15T23:14:49.266Z,7.77
2018-05-15T23:17:17.471Z,7.70
2018-05-15T23:19:46.352Z,7.00
2018-05-15T23:22:26.217Z,8.50
2018-05-15T23:24:54.441Z,7.00
2018-05-15T23:27:22.689Z,6.97
2018-05-15T23:29:51.253Z,7.80
2018-05-15T23:32:19.569Z,7.80
2018-05-15T23:34:48.532Z,8.27
2018-05-15T23:37:17.963Z,7.83
2018-05-15T23:39:46.173Z,7.83
2018-05-15T23:42:14.367Z,8.10
2018-05-15T23:44:42.591Z,8.87
2018-05-15T23:47:11.345Z,7.50
2018-05-15T23:49:39.544Z,7.10
2018-05-15T23:52:07.752Z,7.47
2018-05-15T23:54:35.973Z,7.97
2018-05-15T23:57:05.303Z,8.60
2018-05-15T23:59:34.273Z,7.87
